sensor_id;sensor_type;location;lat;lon;timestamp;P1;durP1;ratioP1;P2;durP2;ratioP2
46216;SDS011;47258;59.424;13.482;2022-12-18T00:01:01;32.85;;;13.88;;
46216;SDS011;47258;59.424;13.482;2022-12-18T00:03:31;29.17;;;12.90;;
46216;SDS011;47258;59.424;13.482;2022-12-18T00:05:58;24.10;;;11.93;;
46216;SDS011;47258;59.424;13.482;2022-12-18T00:08:25;26.67;;;13.32;;
46216;SDS011;47258;59.424;13.482;2022-12-18T00:10:53;25.08;;;12.02;;
46216;SDS011;47258;59.424;13.482;2022-12-18T00:13:20;22.33;;;10.50;;
46216;SDS011;47258;59.424;13.482;2022-12-18T00:15:48;25.50;;;11.35;;
46216;SDS011;47258;59.424;13.482;2022-12-18T00:18:15;25.42;;;13.25;;
46216;SDS011;47258;59.424;13.482;2022-12-18T00:20:42;24.95;;;11.02;;
46216;SDS011;47258;59.424;13.482;2022-12-18T00:23:09;22.92;;;11.77;;
46216;SDS011;47258;59.424;13.482;2022-12-18T00:25:37;20.60;;;12.10;;
46216;SDS011;47258;59.424;13.482;2022-12-18T00:28:04;24.90;;;13.85;;
46216;SDS011;47258;59.424;13.482;2022-12-18T00:30:31;29.55;;;13.57;;
46216;SDS011;47258;59.424;13.482;2022-12-18T00:32:59;22.33;;;11.75;;
46216;SDS011;47258;59.424;13.482;2022-12-18T00:35:26;29.70;;;12.80;;
46216;SDS011;47258;59.424;13.482;2022-12-18T00:37:53;28.95;;;13.77;;
46216;SDS011;47258;59.424;13.482;2022-12-18T00:40:20;30.65;;;14.13;;
46216;SDS011;47258;59.424;13.482;2022-12-18T00:42:47;27.85;;;12.77;;
46216;SDS011;47258;59.424;13.482;2022-12-18T00:45:23;22.90;;;11.55;;
46216;SDS011;47258;59.424;13.482;2022-12-18T00:47:50;23.77;;;12.00;;
46216;SDS011;47258;59.424;13.482;2022-12-18T00:50:19;23.08;;;12.55;;
46216;SDS011;47258;59.424;13.482;2022-12-18T00:52:46;18.77;;;10.27;;
46216;SDS011;47258;59.424;13.482;2022-12-18T00:55:13;17.02;;;11.15;;
46216;SDS011;47258;59.424;13.482;2022-12-18T00:57:41;20.30;;;10.18;;
46216;SDS011;47258;59.424;13.482;2022-12-18T01:00:09;18.60;;;10.63;;
46216;SDS011;47258;59.424;13.482;2022-12-18T01:02:39;18.00;;;12.07;;
46216;SDS011;47258;59.424;13.482;2022-12-18T01:05:07;25.55;;;13.27;;
46216;SDS011;47258;59.424;13.482;2022-12-18T01:07:37;23.15;;;13.43;;
46216;SDS011;47258;59.424;13.482;2022-12-18T01:10:05;24.07;;;13.90;;
46216;SDS011;47258;59.424;13.482;2022-12-18T01:12:33;29.70;;;14.23;;
46216;SDS011;47258;59.424;13.482;2022-12-18T01:15:00;24.13;;;13.65;;
46216;SDS011;47258;59.424;13.482;2022-12-18T01:17:28;26.83;;;12.55;;
46216;SDS011;47258;59.424;13.482;2022-12-18T01:19:55;16.27;;;10.52;;
46216;SDS011;47258;59.424;13.482;2022-12-18T01:22:22;16.58;;;8.73;;
46216;SDS011;47258;59.424;13.482;2022-12-18T01:24:50;13.15;;;7.88;;
46216;SDS011;47258;59.424;13.482;2022-12-18T01:27:17;11.88;;;7.00;;
46216;SDS011;47258;59.424;13.482;2022-12-18T01:29:44;17.80;;;8.48;;
46216;SDS011;47258;59.424;13.482;2022-12-18T01:32:11;13.00;;;8.30;;
46216;SDS011;47258;59.424;13.482;2022-12-18T01:34:38;16.33;;;9.93;;
46216;SDS011;47258;59.424;13.482;2022-12-18T01:37:06;17.63;;;9.38;;
46216;SDS011;47258;59.424;13.482;2022-12-18T01:39:33;15.80;;;8.65;;
46216;SDS011;47258;59.424;13.482;2022-12-18T01:42:05;17.45;;;10.35;;
46216;SDS011;47258;59.424;13.482;2022-12-18T01:44:54;18.98;;;9.65;;
46216;SDS011;47258;59.424;13.482;2022-12-18T01:47:36;17.23;;;9.60;;
46216;SDS011;47258;59.424;13.482;2022-12-18T01:50:09;14.50;;;9.60;;
46216;SDS011;47258;59.424;13.482;2022-12-18T01:52:39;17.38;;;11.07;;
46216;SDS011;47258;59.424;13.482;2022-12-18T01:57:37;16.63;;;9.68;;
46216;SDS011;47258;59.424;13.482;2022-12-18T02:00:06;17.08;;;10.30;;
46216;SDS011;47258;59.424;13.482;2022-12-18T02:02:37;17.08;;;10.23;;
46216;SDS011;47258;59.424;13.482;2022-12-18T02:05:05;16.42;;;8.77;;
46216;SDS011;47258;59.424;13.482;2022-12-18T02:07:37;12.65;;;8.23;;
46216;SDS011;47258;59.424;13.482;2022-12-18T02:10:10;12.60;;;7.95;;
46216;SDS011;47258;59.424;13.482;2022-12-18T02:12:48;16.50;;;9.18;;
46216;SDS011;47258;59.424;13.482;2022-12-18T02:15:19;12.38;;;7.45;;
46216;SDS011;47258;59.424;13.482;2022-12-18T02:17:54;15.65;;;8.25;;
46216;SDS011;47258;59.424;13.482;2022-12-18T02:20:26;14.88;;;8.10;;
46216;SDS011;47258;59.424;13.482;2022-12-18T02:23:04;17.52;;;8.45;;
46216;SDS011;47258;59.424;13.482;2022-12-18T02:28:25;13.18;;;7.18;;
46216;SDS011;47258;59.424;13.482;2022-12-18T02:30:58;14.85;;;8.32;;
46216;SDS011;47258;59.424;13.482;2022-12-18T02:33:27;12.40;;;7.88;;
46216;SDS011;47258;59.424;13.482;2022-12-18T02:35:56;10.48;;;6.70;;
46216;SDS011;47258;59.424;13.482;2022-12-18T02:38:25;11.20;;;7.45;;
46216;SDS011;47258;59.424;13.482;2022-12-18T02:40:54;13.25;;;7.50;;
46216;SDS011;47258;59.424;13.482;2022-12-18T02:43:22;13.00;;;7.10;;
46216;SDS011;47258;59.424;13.482;2022-12-18T02:45:50;11.25;;;5.90;;
46216;SDS011;47258;59.424;13.482;2022-12-18T02:48:23;12.13;;;5.63;;
46216;SDS011;47258;59.424;13.482;2022-12-18T02:50:53;9.30;;;5.38;;
46216;SDS011;47258;59.424;13.482;2022-12-18T02:53:24;9.27;;;5.18;;
46216;SDS011;47258;59.424;13.482;2022-12-18T02:56:01;18.08;;;5.53;;
46216;SDS011;47258;59.424;13.482;2022-12-18T02:58:34;10.25;;;5.65;;
46216;SDS011;47258;59.424;13.482;2022-12-18T03:01:09;9.65;;;5.22;;
46216;SDS011;47258;59.424;13.482;2022-12-18T03:03:39;15.55;;;6.80;;
46216;SDS011;47258;59.424;13.482;2022-12-18T03:06:10;9.07;;;5.53;;
46216;SDS011;47258;59.424;13.482;2022-12-18T03:08:44;20.13;;;7.60;;
46216;SDS011;47258;59.424;13.482;2022-12-18T03:11:15;20.05;;;7.43;;
46216;SDS011;47258;59.424;13.482;2022-12-18T03:16:31;11.13;;;6.95;;
46216;SDS011;47258;59.424;13.482;2022-12-18T03:19:03;12.10;;;8.07;;
46216;SDS011;47258;59.424;13.482;2022-12-18T03:21:35;10.57;;;7.32;;
46216;SDS011;47258;59.424;13.482;2022-12-18T03:24:07;15.48;;;8.50;;
46216;SDS011;47258;59.424;13.482;2022-12-18T03:26:37;12.75;;;8.32;;
46216;SDS011;47258;59.424;13.482;2022-12-18T03:29:12;14.35;;;8.13;;
46216;SDS011;47258;59.424;13.482;2022-12-18T03:31:45;11.35;;;6.85;;
46216;SDS011;47258;59.424;13.482;2022-12-18T03:34:18;11.90;;;6.15;;
46216;SDS011;47258;59.424;13.482;2022-12-18T03:36:49;9.88;;;6.55;;
46216;SDS011;47258;59.424;13.482;2022-12-18T03:39:16;9.50;;;5.60;;
46216;SDS011;47258;59.424;13.482;2022-12-18T03:41:46;10.65;;;6.55;;
46216;SDS011;47258;59.424;13.482;2022-12-18T03:44:17;10.23;;;6.97;;
46216;SDS011;47258;59.424;13.482;2022-12-18T03:46:53;11.48;;;6.82;;
46216;SDS011;47258;59.424;13.482;2022-12-18T03:49:25;9.77;;;6.43;;
46216;SDS011;47258;59.424;13.482;2022-12-18T03:52:00;9.43;;;5.65;;
46216;SDS011;47258;59.424;13.482;2022-12-18T03:54:29;9.07;;;6.13;;
46216;SDS011;47258;59.424;13.482;2022-12-18T03:57:01;9.05;;;5.35;;
46216;SDS011;47258;59.424;13.482;2022-12-18T03:59:31;8.82;;;4.25;;
46216;SDS011;47258;59.424;13.482;2022-12-18T04:01:59;9.18;;;4.60;;
46216;SDS011;47258;59.424;13.482;2022-12-18T04:04:27;5.22;;;4.00;;
46216;SDS011;47258;59.424;13.482;2022-12-18T04:06:56;7.53;;;4.70;;
46216;SDS011;47258;59.424;13.482;2022-12-18T04:09:24;5.55;;;4.13;;
46216;SDS011;47258;59.424;13.482;2022-12-18T04:11:53;8.05;;;4.57;;
46216;SDS011;47258;59.424;13.482;2022-12-18T04:14:21;4.25;;;3.78;;
46216;SDS011;47258;59.424;13.482;2022-12-18T04:16:48;6.15;;;3.92;;
46216;SDS011;47258;59.424;13.482;2022-12-18T04:19:15;8.55;;;5.38;;
46216;SDS011;47258;59.424;13.482;2022-12-18T04:21:42;8.02;;;4.95;;
46216;SDS011;47258;59.424;13.482;2022-12-18T04:24:09;7.28;;;5.03;;
46216;SDS011;47258;59.424;13.482;2022-12-18T04:26:36;8.95;;;5.25;;
46216;SDS011;47258;59.424;13.482;2022-12-18T04:29:03;10.82;;;6.18;;
46216;SDS011;47258;59.424;13.482;2022-12-18T04:31:32;9.05;;;5.97;;
46216;SDS011;47258;59.424;13.482;2022-12-18T04:33:59;16.98;;;7.95;;
46216;SDS011;47258;59.424;13.482;2022-12-18T04:36:26;14.48;;;8.48;;
46216;SDS011;47258;59.424;13.482;2022-12-18T04:38:53;17.50;;;8.93;;
46216;SDS011;47258;59.424;13.482;2022-12-18T04:41:20;21.13;;;10.55;;
46216;SDS011;47258;59.424;13.482;2022-12-18T04:43:48;23.33;;;11.57;;
46216;SDS011;47258;59.424;13.482;2022-12-18T04:46:15;20.80;;;10.40;;
46216;SDS011;47258;59.424;13.482;2022-12-18T04:48:44;23.70;;;12.85;;
46216;SDS011;47258;59.424;13.482;2022-12-18T04:51:13;24.90;;;12.68;;
46216;SDS011;47258;59.424;13.482;2022-12-18T04:53:40;30.33;;;14.32;;
46216;SDS011;47258;59.424;13.482;2022-12-18T04:56:08;33.85;;;17.33;;
46216;SDS011;47258;59.424;13.482;2022-12-18T04:58:36;38.95;;;17.17;;
46216;SDS011;47258;59.424;13.482;2022-12-18T05:01:04;40.30;;;17.08;;
46216;SDS011;47258;59.424;13.482;2022-12-18T05:03:33;40.85;;;18.25;;
46216;SDS011;47258;59.424;13.482;2022-12-18T05:06:02;34.92;;;16.98;;
46216;SDS011;47258;59.424;13.482;2022-12-18T05:08:29;38.03;;;19.73;;
46216;SDS011;47258;59.424;13.482;2022-12-18T05:11:01;39.22;;;19.50;;
46216;SDS011;47258;59.424;13.482;2022-12-18T05:13:29;50.53;;;20.48;;
46216;SDS011;47258;59.424;13.482;2022-12-18T05:15:56;36.38;;;18.75;;
46216;SDS011;47258;59.424;13.482;2022-12-18T05:18:24;40.50;;;19.65;;
46216;SDS011;47258;59.424;13.482;2022-12-18T05:20:51;38.83;;;19.63;;
46216;SDS011;47258;59.424;13.482;2022-12-18T05:23:21;36.78;;;16.55;;
46216;SDS011;47258;59.424;13.482;2022-12-18T05:25:50;41.00;;;17.88;;
46216;SDS011;47258;59.424;13.482;2022-12-18T05:28:18;45.55;;;18.83;;
46216;SDS011;47258;59.424;13.482;2022-12-18T05:30:47;43.35;;;18.58;;
46216;SDS011;47258;59.424;13.482;2022-12-18T05:33:16;43.78;;;18.50;;
46216;SDS011;47258;59.424;13.482;2022-12-18T05:35:43;40.67;;;17.88;;
46216;SDS011;47258;59.424;13.482;2022-12-18T05:38:16;46.53;;;18.33;;
46216;SDS011;47258;59.424;13.482;2022-12-18T05:40:44;35.45;;;18.17;;
46216;SDS011;47258;59.424;13.482;2022-12-18T05:43:11;36.67;;;18.63;;
46216;SDS011;47258;59.424;13.482;2022-12-18T05:45:38;47.85;;;18.98;;
46216;SDS011;47258;59.424;13.482;2022-12-18T05:48:06;37.13;;;17.70;;
46216;SDS011;47258;59.424;13.482;2022-12-18T05:50:34;38.45;;;17.80;;
46216;SDS011;47258;59.424;13.482;2022-12-18T05:53:02;33.72;;;17.15;;
46216;SDS011;47258;59.424;13.482;2022-12-18T05:55:29;36.13;;;16.60;;
46216;SDS011;47258;59.424;13.482;2022-12-18T05:58:01;42.92;;;19.75;;
46216;SDS011;47258;59.424;13.482;2022-12-18T06:00:28;41.13;;;18.00;;
46216;SDS011;47258;59.424;13.482;2022-12-18T06:02:57;38.80;;;17.70;;
46216;SDS011;47258;59.424;13.482;2022-12-18T06:05:24;39.17;;;17.70;;
46216;SDS011;47258;59.424;13.482;2022-12-18T06:07:51;34.05;;;15.90;;
46216;SDS011;47258;59.424;13.482;2022-12-18T06:10:18;31.38;;;13.77;;
46216;SDS011;47258;59.424;13.482;2022-12-18T06:12:45;26.42;;;10.98;;
46216;SDS011;47258;59.424;13.482;2022-12-18T06:15:14;30.77;;;13.23;;
46216;SDS011;47258;59.424;13.482;2022-12-18T06:17:41;29.05;;;12.13;;
46216;SDS011;47258;59.424;13.482;2022-12-18T06:20:08;20.83;;;11.32;;
46216;SDS011;47258;59.424;13.482;2022-12-18T06:22:36;20.70;;;11.30;;
46216;SDS011;47258;59.424;13.482;2022-12-18T06:25:03;24.42;;;10.35;;
46216;SDS011;47258;59.424;13.482;2022-12-18T06:27:31;20.92;;;9.68;;
46216;SDS011;47258;59.424;13.482;2022-12-18T06:29:58;17.25;;;9.25;;
46216;SDS011;47258;59.424;13.482;2022-12-18T06:32:27;24.50;;;10.38;;
46216;SDS011;47258;59.424;13.482;2022-12-18T06:34:54;22.67;;;10.63;;
46216;SDS011;47258;59.424;13.482;2022-12-18T06:37:21;25.52;;;10.68;;
46216;SDS011;47258;59.424;13.482;2022-12-18T06:39:51;23.20;;;11.32;;
46216;SDS011;47258;59.424;13.482;2022-12-18T06:42:18;24.17;;;10.80;;
46216;SDS011;47258;59.424;13.482;2022-12-18T06:44:45;22.20;;;10.80;;
46216;SDS011;47258;59.424;13.482;2022-12-18T06:47:12;27.73;;;11.55;;
46216;SDS011;47258;59.424;13.482;2022-12-18T06:49:40;16.85;;;5.85;;
46216;SDS011;47258;59.424;13.482;2022-12-18T06:52:07;20.52;;;10.18;;
46216;SDS011;47258;59.424;13.482;2022-12-18T06:54:35;15.23;;;7.70;;
46216;SDS011;47258;59.424;13.482;2022-12-18T06:57:02;15.50;;;7.82;;
46216;SDS011;47258;59.424;13.482;2022-12-18T06:59:29;20.83;;;8.70;;
46216;SDS011;47258;59.424;13.482;2022-12-18T07:01:56;20.00;;;8.95;;
46216;SDS011;47258;59.424;13.482;2022-12-18T07:04:27;18.92;;;8.65;;
46216;SDS011;47258;59.424;13.482;2022-12-18T07:06:56;14.63;;;7.22;;
46216;SDS011;47258;59.424;13.482;2022-12-18T07:09:23;12.87;;;6.90;;
46216;SDS011;47258;59.424;13.482;2022-12-18T07:11:50;14.82;;;7.75;;
46216;SDS011;47258;59.424;13.482;2022-12-18T07:14:17;19.55;;;6.47;;
46216;SDS011;47258;59.424;13.482;2022-12-18T07:16:44;10.82;;;5.88;;
46216;SDS011;47258;59.424;13.482;2022-12-18T07:19:11;12.88;;;4.90;;
46216;SDS011;47258;59.424;13.482;2022-12-18T07:21:38;11.18;;;5.22;;
46216;SDS011;47258;59.424;13.482;2022-12-18T07:24:07;8.63;;;4.55;;
46216;SDS011;47258;59.424;13.482;2022-12-18T07:26:34;7.13;;;3.73;;
46216;SDS011;47258;59.424;13.482;2022-12-18T07:29:01;6.80;;;3.35;;
46216;SDS011;47258;59.424;13.482;2022-12-18T07:31:28;9.00;;;3.05;;
46216;SDS011;47258;59.424;13.482;2022-12-18T07:33:55;7.32;;;2.88;;
46216;SDS011;47258;59.424;13.482;2022-12-18T07:36:22;3.25;;;2.22;;
46216;SDS011;47258;59.424;13.482;2022-12-18T07:38:50;2.15;;;1.70;;
46216;SDS011;47258;59.424;13.482;2022-12-18T07:41:19;2.67;;;1.83;;
46216;SDS011;47258;59.424;13.482;2022-12-18T07:43:46;5.55;;;1.67;;
46216;SDS011;47258;59.424;13.482;2022-12-18T07:46:14;2.10;;;1.50;;
46216;SDS011;47258;59.424;13.482;2022-12-18T07:48:42;1.30;;;1.27;;
46216;SDS011;47258;59.424;13.482;2022-12-18T07:51:11;4.85;;;2.30;;
46216;SDS011;47258;59.424;13.482;2022-12-18T07:53:38;3.70;;;1.85;;
46216;SDS011;47258;59.424;13.482;2022-12-18T07:56:07;4.82;;;2.92;;
46216;SDS011;47258;59.424;13.482;2022-12-18T07:58:36;4.18;;;3.20;;
46216;SDS011;47258;59.424;13.482;2022-12-18T08:01:04;13.48;;;4.68;;
46216;SDS011;47258;59.424;13.482;2022-12-18T08:03:31;12.23;;;4.38;;
46216;SDS011;47258;59.424;13.482;2022-12-18T08:05:59;10.57;;;4.43;;
46216;SDS011;47258;59.424;13.482;2022-12-18T08:08:27;8.80;;;4.03;;
46216;SDS011;47258;59.424;13.482;2022-12-18T08:10:55;10.05;;;4.72;;
46216;SDS011;47258;59.424;13.482;2022-12-18T08:13:22;12.00;;;4.75;;
46216;SDS011;47258;59.424;13.482;2022-12-18T08:15:56;12.75;;;6.32;;
46216;SDS011;47258;59.424;13.482;2022-12-18T08:18:24;7.32;;;3.28;;
46216;SDS011;47258;59.424;13.482;2022-12-18T08:20:51;13.25;;;4.85;;
46216;SDS011;47258;59.424;13.482;2022-12-18T08:23:18;8.70;;;3.08;;
46216;SDS011;47258;59.424;13.482;2022-12-18T08:25:45;5.50;;;2.85;;
46216;SDS011;47258;59.424;13.482;2022-12-18T08:28:12;5.43;;;2.83;;
46216;SDS011;47258;59.424;13.482;2022-12-18T08:33:10;5.63;;;2.45;;
46216;SDS011;47258;59.424;13.482;2022-12-18T08:35:38;5.72;;;3.30;;
46216;SDS011;47258;59.424;13.482;2022-12-18T08:38:05;7.97;;;2.92;;
46216;SDS011;47258;59.424;13.482;2022-12-18T08:40:32;7.97;;;2.58;;
46216;SDS011;47258;59.424;13.482;2022-12-18T08:42:59;7.47;;;4.10;;
46216;SDS011;47258;59.424;13.482;2022-12-18T08:45:44;16.30;;;5.72;;
46216;SDS011;47258;59.424;13.482;2022-12-18T08:48:12;8.05;;;4.85;;
46216;SDS011;47258;59.424;13.482;2022-12-18T08:50:39;10.77;;;3.80;;
46216;SDS011;47258;59.424;13.482;2022-12-18T08:53:06;12.85;;;6.43;;
46216;SDS011;47258;59.424;13.482;2022-12-18T08:55:34;17.08;;;5.40;;
46216;SDS011;47258;59.424;13.482;2022-12-18T08:58:01;8.02;;;3.30;;
46216;SDS011;47258;59.424;13.482;2022-12-18T09:00:28;7.20;;;3.90;;
46216;SDS011;47258;59.424;13.482;2022-12-18T09:02:55;27.67;;;13.75;;
46216;SDS011;47258;59.424;13.482;2022-12-18T09:05:23;26.42;;;12.48;;
46216;SDS011;47258;59.424;13.482;2022-12-18T09:07:51;13.75;;;5.20;;
46216;SDS011;47258;59.424;13.482;2022-12-18T09:10:18;10.85;;;3.15;;
46216;SDS011;47258;59.424;13.482;2022-12-18T09:12:45;11.25;;;3.85;;
46216;SDS011;47258;59.424;13.482;2022-12-18T09:15:12;6.65;;;2.83;;
46216;SDS011;47258;59.424;13.482;2022-12-18T09:17:39;9.75;;;4.38;;
46216;SDS011;47258;59.424;13.482;2022-12-18T09:20:06;12.73;;;5.22;;
46216;SDS011;47258;59.424;13.482;2022-12-18T09:22:35;13.13;;;5.03;;
46216;SDS011;47258;59.424;13.482;2022-12-18T09:25:03;10.40;;;3.88;;
46216;SDS011;47258;59.424;13.482;2022-12-18T09:27:32;14.40;;;5.68;;
46216;SDS011;47258;59.424;13.482;2022-12-18T09:29:59;14.60;;;4.22;;
46216;SDS011;47258;59.424;13.482;2022-12-18T09:32:27;17.33;;;4.45;;
46216;SDS011;47258;59.424;13.482;2022-12-18T09:34:54;13.05;;;3.30;;
46216;SDS011;47258;59.424;13.482;2022-12-18T09:37:21;14.23;;;5.40;;
46216;SDS011;47258;59.424;13.482;2022-12-18T09:39:49;12.27;;;3.97;;
46216;SDS011;47258;59.424;13.482;2022-12-18T09:42:17;15.93;;;4.50;;
46216;SDS011;47258;59.424;13.482;2022-12-18T09:44:48;7.32;;;2.65;;
46216;SDS011;47258;59.424;13.482;2022-12-18T09:47:17;10.35;;;2.63;;
46216;SDS011;47258;59.424;13.482;2022-12-18T09:49:49;10.00;;;2.63;;
46216;SDS011;47258;59.424;13.482;2022-12-18T09:52:21;13.15;;;2.15;;
46216;SDS011;47258;59.424;13.482;2022-12-18T09:54:55;12.27;;;2.85;;
46216;SDS011;47258;59.424;13.482;2022-12-18T09:57:26;13.43;;;2.85;;
46216;SDS011;47258;59.424;13.482;2022-12-18T09:59:58;10.05;;;2.30;;
46216;SDS011;47258;59.424;13.482;2022-12-18T10:02:30;9.13;;;2.83;;
46216;SDS011;47258;59.424;13.482;2022-12-18T10:05:02;14.15;;;2.78;;
46216;SDS011;47258;59.424;13.482;2022-12-18T10:07:34;11.20;;;3.30;;
46216;SDS011;47258;59.424;13.482;2022-12-18T10:10:18;15.60;;;3.70;;
46216;SDS011;47258;59.424;13.482;2022-12-18T10:12:52;12.27;;;2.65;;
46216;SDS011;47258;59.424;13.482;2022-12-18T10:15:27;14.43;;;3.05;;
46216;SDS011;47258;59.424;13.482;2022-12-18T10:18:01;17.75;;;4.10;;
46216;SDS011;47258;59.424;13.482;2022-12-18T10:20:41;7.68;;;1.92;;
46216;SDS011;47258;59.424;13.482;2022-12-18T10:23:13;13.30;;;3.17;;
46216;SDS011;47258;59.424;13.482;2022-12-18T10:25:50;16.65;;;3.55;;
46216;SDS011;47258;59.424;13.482;2022-12-18T10:28:21;12.65;;;3.10;;
46216;SDS011;47258;59.424;13.482;2022-12-18T10:30:49;23.27;;;4.95;;
46216;SDS011;47258;59.424;13.482;2022-12-18T10:33:18;11.45;;;2.88;;
46216;SDS011;47258;59.424;13.482;2022-12-18T10:35:48;9.60;;;2.15;;
46216;SDS011;47258;59.424;13.482;2022-12-18T10:38:22;12.65;;;2.40;;
46216;SDS011;47258;59.424;13.482;2022-12-18T10:40:54;8.25;;;1.85;;
46216;SDS011;47258;59.424;13.482;2022-12-18T10:43:24;3.60;;;1.70;;
46216;SDS011;47258;59.424;13.482;2022-12-18T10:48:49;18.60;;;2.22;;
46216;SDS011;47258;59.424;13.482;2022-12-18T10:51:19;14.45;;;1.85;;
46216;SDS011;47258;59.424;13.482;2022-12-18T10:53:51;10.75;;;2.50;;
46216;SDS011;47258;59.424;13.482;2022-12-18T10:56:23;9.68;;;3.08;;
46216;SDS011;47258;59.424;13.482;2022-12-18T10:58:56;7.35;;;2.40;;
46216;SDS011;47258;59.424;13.482;2022-12-18T11:01:25;9.98;;;1.83;;
46216;SDS011;47258;59.424;13.482;2022-12-18T11:04:00;19.33;;;2.75;;
46216;SDS011;47258;59.424;13.482;2022-12-18T11:06:28;14.85;;;2.20;;
46216;SDS011;47258;59.424;13.482;2022-12-18T11:09:00;12.00;;;3.75;;
46216;SDS011;47258;59.424;13.482;2022-12-18T11:11:31;16.60;;;2.60;;
46216;SDS011;47258;59.424;13.482;2022-12-18T11:14:00;13.43;;;2.70;;
46216;SDS011;47258;59.424;13.482;2022-12-18T11:16:29;12.23;;;2.83;;
46216;SDS011;47258;59.424;13.482;2022-12-18T11:19:10;13.60;;;2.92;;
46216;SDS011;47258;59.424;13.482;2022-12-18T11:21:46;8.18;;;1.48;;
46216;SDS011;47258;59.424;13.482;2022-12-18T11:24:19;12.52;;;2.60;;
46216;SDS011;47258;59.424;13.482;2022-12-18T11:26:52;17.45;;;3.03;;
46216;SDS011;47258;59.424;13.482;2022-12-18T11:29:22;8.77;;;2.28;;
46216;SDS011;47258;59.424;13.482;2022-12-18T11:31:55;11.90;;;2.25;;
46216;SDS011;47258;59.424;13.482;2022-12-18T11:34:58;13.98;;;1.90;;
46216;SDS011;47258;59.424;13.482;2022-12-18T11:37:29;11.18;;;2.85;;
46216;SDS011;47258;59.424;13.482;2022-12-18T11:39:59;14.30;;;2.07;;
46216;SDS011;47258;59.424;13.482;2022-12-18T11:42:32;9.27;;;1.67;;
46216;SDS011;47258;59.424;13.482;2022-12-18T11:45:21;10.23;;;2.20;;
46216;SDS011;47258;59.424;13.482;2022-12-18T11:47:54;10.50;;;2.25;;
46216;SDS011;47258;59.424;13.482;2022-12-18T11:50:26;7.05;;;1.48;;
46216;SDS011;47258;59.424;13.482;2022-12-18T11:52:57;5.35;;;1.83;;
46216;SDS011;47258;59.424;13.482;2022-12-18T11:55:27;7.68;;;1.65;;
46216;SDS011;47258;59.424;13.482;2022-12-18T11:58:05;9.85;;;1.75;;
46216;SDS011;47258;59.424;13.482;2022-12-18T12:00:42;7.60;;;1.15;;
46216;SDS011;47258;59.424;13.482;2022-12-18T12:03:18;8.85;;;2.75;;
46216;SDS011;47258;59.424;13.482;2022-12-18T12:05:58;3.63;;;1.08;;
46216;SDS011;47258;59.424;13.482;2022-12-18T12:08:37;11.63;;;1.77;;
46216;SDS011;47258;59.424;13.482;2022-12-18T12:11:13;7.65;;;1.08;;
46216;SDS011;47258;59.424;13.482;2022-12-18T12:13:52;14.93;;;2.75;;
46216;SDS011;47258;59.424;13.482;2022-12-18T12:16:32;7.35;;;1.20;;
46216;SDS011;47258;59.424;13.482;2022-12-18T12:19:13;12.25;;;2.28;;
46216;SDS011;47258;59.424;13.482;2022-12-18T12:21:49;12.75;;;2.60;;
46216;SDS011;47258;59.424;13.482;2022-12-18T12:24:27;3.78;;;1.67;;
46216;SDS011;47258;59.424;13.482;2022-12-18T12:27:05;8.88;;;1.30;;
46216;SDS011;47258;59.424;13.482;2022-12-18T12:29:44;11.65;;;2.83;;
46216;SDS011;47258;59.424;13.482;2022-12-18T12:32:25;8.48;;;1.35;;
46216;SDS011;47258;59.424;13.482;2022-12-18T12:35:08;14.65;;;1.50;;
46216;SDS011;47258;59.424;13.482;2022-12-18T12:40:16;2.47;;;1.25;;
46216;SDS011;47258;59.424;13.482;2022-12-18T12:42:46;5.30;;;1.13;;
46216;SDS011;47258;59.424;13.482;2022-12-18T12:45:36;17.40;;;2.42;;
46216;SDS011;47258;59.424;13.482;2022-12-18T12:48:11;6.97;;;1.55;;
46216;SDS011;47258;59.424;13.482;2022-12-18T12:50:44;6.32;;;1.75;;
46216;SDS011;47258;59.424;13.482;2022-12-18T12:53:16;13.32;;;1.33;;
46216;SDS011;47258;59.424;13.482;2022-12-18T12:55:51;5.60;;;2.17;;
46216;SDS011;47258;59.424;13.482;2022-12-18T12:58:22;9.18;;;1.58;;
46216;SDS011;47258;59.424;13.482;2022-12-18T13:00:59;5.43;;;1.20;;
46216;SDS011;47258;59.424;13.482;2022-12-18T13:03:34;7.47;;;1.75;;
46216;SDS011;47258;59.424;13.482;2022-12-18T13:06:09;4.70;;;1.70;;
46216;SDS011;47258;59.424;13.482;2022-12-18T13:08:54;11.27;;;2.00;;
46216;SDS011;47258;59.424;13.482;2022-12-18T13:14:27;7.32;;;1.20;;
46216;SDS011;47258;59.424;13.482;2022-12-18T13:19:43;7.20;;;0.95;;
46216;SDS011;47258;59.424;13.482;2022-12-18T13:22:20;11.73;;;3.00;;
46216;SDS011;47258;59.424;13.482;2022-12-18T13:24:48;3.92;;;0.80;;
46216;SDS011;47258;59.424;13.482;2022-12-18T13:30:42;7.53;;;0.98;;
46216;SDS011;47258;59.424;13.482;2022-12-18T13:36:12;8.07;;;1.50;;
46216;SDS011;47258;59.424;13.482;2022-12-18T13:38:41;9.48;;;1.48;;
46216;SDS011;47258;59.424;13.482;2022-12-18T13:41:22;7.57;;;1.30;;
46216;SDS011;47258;59.424;13.482;2022-12-18T13:43:51;13.18;;;2.08;;
46216;SDS011;47258;59.424;13.482;2022-12-18T13:46:20;7.45;;;0.98;;
46216;SDS011;47258;59.424;13.482;2022-12-18T13:48:52;7.10;;;1.48;;
46216;SDS011;47258;59.424;13.482;2022-12-18T13:51:31;7.32;;;1.75;;
46216;SDS011;47258;59.424;13.482;2022-12-18T13:53:59;10.15;;;1.70;;
46216;SDS011;47258;59.424;13.482;2022-12-18T13:56:29;9.80;;;2.08;;
46216;SDS011;47258;59.424;13.482;2022-12-18T14:01:43;2.65;;;1.42;;
46216;SDS011;47258;59.424;13.482;2022-12-18T14:04:22;13.57;;;1.40;;
46216;SDS011;47258;59.424;13.482;2022-12-18T14:06:52;6.43;;;1.50;;
46216;SDS011;47258;59.424;13.482;2022-12-18T14:09:23;8.10;;;1.75;;
46216;SDS011;47258;59.424;13.482;2022-12-18T14:11:53;17.95;;;2.60;;
46216;SDS011;47258;59.424;13.482;2022-12-18T14:14:43;5.70;;;1.08;;
46216;SDS011;47258;59.424;13.482;2022-12-18T14:17:12;5.05;;;1.08;;
46216;SDS011;47258;59.424;13.482;2022-12-18T14:19:45;5.63;;;1.55;;
46216;SDS011;47258;59.424;13.482;2022-12-18T14:22:15;6.60;;;1.25;;
46216;SDS011;47258;59.424;13.482;2022-12-18T14:24:44;9.60;;;1.15;;
46216;SDS011;47258;59.424;13.482;2022-12-18T14:27:12;12.90;;;1.42;;
46216;SDS011;47258;59.424;13.482;2022-12-18T14:29:47;9.32;;;1.67;;
46216;SDS011;47258;59.424;13.482;2022-12-18T14:32:15;10.02;;;1.77;;
46216;SDS011;47258;59.424;13.482;2022-12-18T14:34:44;3.92;;;0.77;;
46216;SDS011;47258;59.424;13.482;2022-12-18T14:37:12;15.57;;;2.80;;
46216;SDS011;47258;59.424;13.482;2022-12-18T14:39:51;9.63;;;1.58;;
46216;SDS011;47258;59.424;13.482;2022-12-18T14:42:20;9.35;;;1.50;;
46216;SDS011;47258;59.424;13.482;2022-12-18T14:44:47;10.27;;;1.35;;
46216;SDS011;47258;59.424;13.482;2022-12-18T14:47:14;5.90;;;1.45;;
46216;SDS011;47258;59.424;13.482;2022-12-18T14:49:42;13.43;;;3.30;;
46216;SDS011;47258;59.424;13.482;2022-12-18T14:52:16;8.50;;;1.65;;
46216;SDS011;47258;59.424;13.482;2022-12-18T14:57:18;9.85;;;1.38;;
46216;SDS011;47258;59.424;13.482;2022-12-18T14:59:48;6.95;;;1.80;;
46216;SDS011;47258;59.424;13.482;2022-12-18T15:02:18;8.20;;;1.98;;
46216;SDS011;47258;59.424;13.482;2022-12-18T15:04:48;15.55;;;1.98;;
46216;SDS011;47258;59.424;13.482;2022-12-18T15:07:38;14.20;;;1.65;;
46216;SDS011;47258;59.424;13.482;2022-12-18T15:10:10;8.07;;;1.15;;
46216;SDS011;47258;59.424;13.482;2022-12-18T15:12:40;4.10;;;1.60;;
46216;SDS011;47258;59.424;13.482;2022-12-18T15:18:11;12.70;;;2.05;;